Thursday, August 16, 2018, 1:57 PM GMT
Back to Local

CYCX, Gagetown Can-Mil

Location: , , Canada Lat: 45.833
Local Time: 1:57 PM GMT (13:57 GMT) Lon: -66.433
Time Zone: GMT Elev: 167 ft

Show me the last for .
Show Decoded

2018-08-16 13:00 METAR CYCX 161300Z 27007KT 10SM FEW008 SCT090 BKN220 20/17 A2990 RMK SF2AC1CI2
                 DA1048FT SLP124 =
2018-08-16 12:34 METAR CYCX 161234Z 27005KT 10SM SCT007 BKN075 BKN220 19/17 A2990 RMK SF3AC2CI2
                 DA975FT SLP125 =
2018-08-16 12:00 METAR CYCX 161200Z 25005KT 10SM BKN006 BKN075 19/17 A2989 RMK SF5AC2 DA937FT
                 SLP123 =
2018-08-16 11:00 METAR CYCX 161100Z 26006KT 10SM SCT007 BKN075 BKN220 18/17 A2988 RMK SF3AC2CI2
                 DA860FT SLP118 =
2018-08-16 10:38 METAR CYCX 161038Z 26004KT 250V310 9SM SCT005 BKN075 BKN220 18/17 A2987 RMK
                 SF3AC2CI2 DA838FT SLP115 =
2018-08-16 10:00 METAR CYCX 161000Z 27003KT 240V300 9SM BKN005 OVC075 18/17 A2986 RMK SF5AC3
                 DA853FT SLP111 =
2018-08-16 09:00 METAR CYCX 160900Z 25003KT 15SM FEW005 BKN120 18/17 A2983 RMK SF1AC6 DA862FT
                 SLP103 =
2018-08-16 08:00 METAR CYCX 160800Z 24006KT 15SM OVC120 18/17 A2983 RMK AC8 DA902FT SLP103 =
2018-08-16 07:00 METAR CYCX 160700Z 26003KT 15SM OVC120 18/17 A2982 RMK AC8 DA953FT SLP099 =
2018-08-16 06:00 METAR CYCX 160600Z 22006KT 15SM FEW070 OVC120 18/17 A2982 RMK AC2AC6 DA977FT
                 SLP099 =
2018-08-16 05:00 METAR CYCX 160500Z 26003KT 230V290 15SM SCT040 OVC120 18/17 A2983 RMK SC4AC4
                 DA965FT SLP103 =
2018-08-16 04:00 METAR CYCX 160400Z 23003KT 15SM SCT070 OVC120 19/18 A2983 RMK AC3AC5 DA992FT
                 SLP101 =
2018-08-16 03:00 METAR CYCX 160300Z 25004KT 15SM SCT070 OVC220 18/17 A2983 RMK AC3CI5 DA964FT
                 SLP101 =
2018-08-16 02:00 METAR CYCX 160200Z 26005KT 15SM FEW050 OVC130 19/18 A2981 RMK SC2AC6 DA1036FT
                 SLP096 =
2018-08-16 01:00 METAR CYCX 160100Z 24004KT 15SM OVC045 19/18 A2980 RMK SC8 DA1088FT SLP092 =
2018-08-16 00:00 METAR CYCX 160000Z CCA 23007KT 180V250 15SM OVC030 19/18 A2978 RMK SC8 DA1111FT
                 SLP084 =
2018-08-15 23:29 METAR CYCX 152329Z 20006KT 12SM -SHRA OVC030 19/18 A2977 RMK SC8 DA1132FT SLP082
                 =
2018-08-15 23:00 METAR CYCX 152300Z 20006KT 12SM BKN030 OVC075 19/18 A2978 RMK SC6AC2 DA1121FT CB
                 EMBD MOVG E OCNL DIST LTNG S LTNG DTCTRS REP STRIKES 20 NM SW SLP085 =
2018-08-15 22:25 METAR CYCX 152225Z 21006KT 12SM BKN020 OVC075 20/18 A2978 RMK SC6AC2 DA1172FT CB
                 EMBD MOVG E OCNL DIST LTGIC S LTNG DTCTRS REP STRIKES 8 NM S SLP086 =
2018-08-15 22:00 METAR CYCX 152200Z 21005KT 12SM -TSRA BKN020 BKN050 20/18 A2978 RMK SC5SC2
                 DA1183FT CB EMBD MOVG E OCNL DIST LTNG S LTNG DTCTRS REP STRIKES 8 NM S SLP085 =
2018-08-15 21:28 METAR CYCX 152128Z 25005KT 230V320 12SM -TSRA BKN020 BKN050 21/18 A2978 RMK
                 SC5SC2 DA1362FT CB EMBD MOVG E OCNL DIST LTNG SW LTNG DTCTRS REP STRIKES 9 NM SW
                 SLP086 =
2018-08-15 21:00 METAR CYCX 152100Z 26009KT 12SM -TSRA SCT030 OVC050 22/19 A2978 RMK SC3SC5
                 DA1470FT CB EMBD MOVG E OCNL DIST LTNG SW LTNG DTCTRS REP STRIKES 11 NM SW
                 SLP083 =
2018-08-15 20:00 METAR CYCX 152000Z 21007KT 180V240 12SM TS SCT030 OVC050 26/20 A2975 RMK SC3SC5
                 DA1995FT CB EMBD MOVG NE OCNL DIST LTNG W LTNG DTCTRS REP STRIKES 11 NM W SLP072
                 =
2018-08-15 19:53 METAR CYCX 151953Z 20006KT 12SM TS SCT030 BKN050 26/20 A2975 RMK SC3SC4 DA1999FT
                 CB EMBD MOVG NE OCNL DIST LTNG W LTNG DTCTRS REP STRIKES 11 NM W SLP073 =
2018-08-15 19:00 METAR CYCX 151900Z 17006KT 12SM SCT030 BKN050 27/20 A2977 RMK SC3SC4 DA2040FT CB
                 EMBD MOVG NE OCNL DIST LTNG N LTNG DTCTRS REP STRIKES 20 NM NW SLP079 =
2018-08-15 18:00 METAR CYCX 151800Z 20007KT 12SM SCT030 BKN045 27/20 A2977 RMK SC4SC3 DA2066FT CB
                 EMBD MOVG NE FRQ DIST LTNG N LTNG DTCTRS REP STRIKES 9 NM N SLP081 =
2018-08-15 17:00 METAR CYCX 151700Z 21008KT 180V260 12SM SCT030 BKN045 27/21 A2978 RMK SC4SC3
                 DA2004FT CB EMBD MOVG NE FRQ DIST LTNG N LTNG DTCTRS REP STRIKES 16 NM N SLP084
                 =
2018-08-15 16:00 METAR CYCX 151600Z 21011KT 170V240 12SM SCT028 BKN035 25/19 A2979 RMK SC4SC3
                 DA1833FT CB EMBD MOVG E OCNL DIST LTNG W LTNG DTCTRS REP STRIKES 26 NM W SLP088
                 =
2018-08-15 15:30 METAR CYCX 151530Z 21010KT 12SM BKN026 BKN050 25/19 A2980 RMK SC6SC2 DA1814FT CB
                 EMBD MOVG E OCNL DIST LTNG W LTNG DTCTRS REP STRIKES 33 NM W SLP092 =
2018-08-15 15:00 METAR CYCX 151500Z 21007KT 12SM BKN020 OVC050 25/20 A2980 RMK SC6SC2 DA1767FT
                 SLP093 =
2018-08-15 14:00 METAR CYCX 151400Z 21005KT 180V240 12SM OVC014 24/20 A2980 RMK SC8 DA1670FT CIG
                 VRB 10-18 SLP092 =

Support USWX by starting your Amazon purchase here.